createdAt,value
2019-04-07T00:02:28.223Z,9.60
2019-04-07T00:05:09.332Z,9.60
2019-04-07T00:07:30.134Z,9.60
2019-04-07T00:10:00.467Z,9.50
2019-04-07T00:12:31.046Z,9.40
2019-04-07T00:15:01.661Z,9.40
2019-04-07T00:17:32.257Z,9.40
2019-04-07T00:20:02.628Z,9.40
2019-04-07T00:22:33.591Z,9.50
2019-04-07T00:25:04.320Z,9.50
2019-04-07T00:27:34.303Z,9.60
2019-04-07T00:30:04.952Z,9.50
2019-04-07T00:32:35.064Z,9.40
2019-04-07T00:35:05.993Z,9.40
2019-04-07T00:37:36.308Z,9.30
2019-04-07T00:40:07.457Z,9.30
2019-04-07T00:42:38.114Z,9.40
2019-04-07T00:45:08.719Z,9.50
2019-04-07T00:47:39.049Z,9.60
2019-04-07T00:50:11.963Z,9.60
2019-04-07T00:52:42.684Z,9.70
2019-04-07T00:55:13.277Z,9.70
2019-04-07T00:57:44.079Z,9.70
2019-04-07T01:00:17.066Z,9.70
2019-04-07T01:02:47.488Z,9.60
2019-04-07T01:05:18.001Z,9.60
2019-04-07T01:07:48.773Z,9.50
2019-04-07T01:10:21.693Z,9.40
2019-04-07T01:12:52.177Z,9.30
2019-04-07T01:15:23.016Z,9.10
2019-04-07T01:17:53.356Z,9.10
2019-04-07T01:20:24.347Z,9.10
2019-04-07T01:22:54.179Z,9.10
2019-04-07T01:25:24.212Z,9.10
2019-04-07T01:27:54.447Z,9.10
2019-04-07T01:30:25.265Z,9.10
2019-04-07T01:32:56.215Z,9.10
2019-04-07T01:35:26.739Z,9.20
2019-04-07T01:37:57.061Z,9.20
2019-04-07T01:40:27.243Z,9.20
2019-04-07T01:43:17.949Z,9.20
2019-04-07T01:46:11.435Z,9.10
2019-04-07T01:48:54.357Z,9.10
2019-04-07T01:51:42.269Z,9.00
2019-04-07T01:54:29.572Z,8.90
2019-04-07T01:57:36.994Z,8.90
2019-04-07T02:00:13.776Z,8.90
2019-04-07T02:03:12.359Z,8.90
2019-04-07T02:06:03.681Z,8.90
2019-04-07T02:08:43.544Z,8.80
2019-04-07T02:11:19.761Z,8.80
2019-04-07T02:13:58.351Z,8.70
2019-04-07T02:16:35.646Z,8.60
2019-04-07T02:19:24.102Z,8.50
2019-04-07T02:22:25.638Z,8.40
2019-04-07T02:25:14.785Z,8.40
2019-04-07T02:28:03.419Z,8.30
2019-04-07T02:30:52.278Z,8.30
2019-04-07T02:33:31.515Z,8.40
2019-04-07T02:36:30.771Z,8.40
2019-04-07T02:39:18.049Z,8.30
2019-04-07T02:41:55.670Z,8.20
2019-04-07T02:44:54.009Z,8.20
2019-04-07T02:47:46.852Z,8.20
2019-04-07T02:50:34.989Z,8.10
2019-04-07T02:53:21.635Z,8.00
2019-04-07T02:56:01.573Z,8.00
2019-04-07T02:58:58.131Z,7.90
2019-04-07T03:01:57.259Z,7.90
2019-04-07T03:04:46.072Z,7.80
2019-04-07T03:07:25.066Z,7.80
2019-04-07T03:10:29.297Z,7.80
2019-04-07T03:13:16.875Z,7.80
2019-04-07T03:15:54.719Z,7.80
2019-04-07T03:19:00.188Z,7.80
2019-04-07T03:21:55.499Z,7.90
2019-04-07T03:24:44.539Z,7.90
2019-04-07T03:27:36.818Z,7.90
2019-04-07T03:30:28.509Z,7.90
2019-04-07T03:33:14.238Z,7.90
2019-04-07T03:36:05.851Z,7.90
2019-04-07T03:38:54.050Z,7.90
2019-04-07T03:41:52.626Z,8.00
2019-04-07T03:44:36.551Z,8.00
2019-04-07T03:47:30.126Z,8.00
2019-04-07T03:50:21.825Z,8.00
2019-04-07T03:52:59.156Z,7.90
2019-04-07T03:55:46.892Z,7.90
2019-04-07T03:58:44.813Z,7.90
2019-04-07T04:01:35.395Z,7.90
2019-04-07T04:04:28.596Z,7.80
2019-04-07T04:07:20.224Z,7.70
2019-04-07T04:10:03.381Z,7.70
2019-04-07T04:12:56.483Z,7.70
2019-04-07T04:15:40.331Z,7.60
2019-04-07T04:18:10.199Z,7.60
2019-04-07T04:20:40.886Z,7.60
2019-04-07T04:23:12.588Z,7.60
2019-04-07T04:25:43.053Z,7.60
2019-04-07T04:28:14.331Z,7.50
2019-04-07T04:30:44.975Z,7.50
2019-04-07T04:33:15.885Z,7.50
2019-04-07T04:35:46.271Z,7.40
2019-04-07T04:38:17.715Z,7.60
2019-04-07T04:40:49.350Z,7.60
2019-04-07T04:43:19.794Z,7.60
2019-04-07T04:45:50.467Z,7.50
2019-04-07T04:48:20.550Z,7.50
2019-04-07T04:50:50.929Z,7.60
2019-04-07T04:53:22.535Z,7.60
2019-04-07T04:55:53.552Z,7.60
2019-04-07T04:58:24.711Z,7.70
2019-04-07T05:00:55.465Z,7.80
2019-04-07T05:03:26.005Z,8.00
2019-04-07T05:05:56.379Z,8.30
2019-04-07T05:08:29.555Z,8.60
2019-04-07T05:11:00.057Z,8.90
2019-04-07T05:13:30.609Z,9.30
2019-04-07T05:16:01.825Z,9.70
2019-04-07T05:18:32.416Z,10.20
2019-04-07T05:21:03.101Z,10.70
2019-04-07T05:23:33.329Z,11.10
2019-04-07T05:26:03.611Z,11.50
2019-04-07T05:28:36.931Z,11.80
2019-04-07T05:31:07.227Z,11.70
2019-04-07T05:33:38.717Z,11.90
2019-04-07T05:36:08.870Z,12.50
2019-04-07T05:38:39.541Z,12.80
2019-04-07T05:41:09.588Z,13.20
2019-04-07T05:43:39.576Z,13.30
2019-04-07T05:46:10.041Z,13.30
2019-04-07T05:48:40.396Z,12.90
2019-04-07T05:51:10.894Z,12.70
2019-04-07T05:53:44.083Z,12.70
2019-04-07T05:56:13.434Z,13.20
2019-04-07T05:58:43.875Z,14.00
2019-04-07T06:01:14.089Z,14.90
2019-04-07T06:03:43.992Z,15.60
2019-04-07T06:06:14.597Z,16.20
2019-04-07T06:08:47.037Z,16.80
2019-04-07T06:11:17.009Z,17.20
2019-04-07T06:13:47.511Z,17.30
2019-04-07T06:16:18.537Z,17.50
2019-04-07T06:18:50.067Z,17.90
2019-04-07T06:21:20.004Z,18.00
2019-04-07T06:23:49.848Z,18.30
2019-04-07T06:26:19.835Z,18.50
2019-04-07T06:28:53.255Z,18.60
2019-04-07T06:31:24.397Z,18.70
2019-04-07T06:33:54.903Z,19.00
2019-04-07T06:36:26.587Z,19.00
2019-04-07T06:38:56.936Z,19.20
2019-04-07T06:41:29.516Z,19.20
2019-04-07T06:44:09.524Z,19.20
2019-04-07T06:46:45.820Z,19.60
2019-04-07T06:49:22.833Z,20.20
2019-04-07T06:52:04.698Z,21.20
2019-04-07T06:54:55.699Z,21.80
2019-04-07T06:58:00.341Z,22.30
2019-04-07T07:00:40.833Z,22.70
2019-04-07T07:03:29.139Z,23.40
2019-04-07T07:06:11.107Z,24.00
2019-04-07T07:08:47.520Z,24.20
2019-04-07T07:11:55.120Z,24.70
2019-04-07T07:15:00.926Z,25.00
2019-04-07T07:17:47.826Z,25.50
2019-04-07T07:20:50.547Z,26.30
2019-04-07T07:23:25.310Z,26.60
2019-04-07T07:25:56.459Z,27.30
2019-04-07T07:28:27.321Z,28.10
2019-04-07T07:30:57.929Z,28.20
2019-04-07T07:33:28.043Z,28.40
2019-04-07T07:35:59.300Z,29.00
2019-04-07T07:38:32.155Z,29.60
2019-04-07T07:41:03.432Z,30.10
2019-04-07T07:43:33.755Z,30.60
2019-04-07T07:46:03.753Z,31.30
2019-04-07T07:48:34.558Z,32.00
2019-04-07T07:51:07.141Z,32.00
2019-04-07T07:53:36.205Z,31.80
2019-04-07T07:56:10.594Z,31.30
2019-04-07T07:58:38.505Z,30.60
2019-04-07T08:01:11.286Z,30.10
2019-04-07T08:03:41.333Z,28.90
2019-04-07T08:06:11.826Z,27.60
2019-04-07T08:08:45.191Z,27.60
2019-04-07T08:11:15.703Z,27.60
2019-04-07T08:13:46.146Z,26.10
2019-04-07T08:16:17.404Z,23.90
2019-04-07T08:18:47.926Z,23.40
2019-04-07T08:21:19.947Z,23.60
2019-04-07T08:23:49.598Z,23.80
2019-04-07T08:26:20.427Z,23.90
2019-04-07T08:28:51.409Z,22.00
2019-04-07T08:31:21.682Z,21.00
2019-04-07T08:33:52.750Z,21.00
2019-04-07T08:36:23.777Z,21.10
2019-04-07T08:38:56.093Z,20.40
2019-04-07T08:41:26.714Z,20.70
2019-04-07T08:43:57.860Z,21.40
2019-04-07T08:46:35.215Z,21.70
2019-04-07T08:49:04.949Z,21.70
2019-04-07T08:51:35.133Z,22.40
2019-04-07T08:54:07.257Z,23.00
2019-04-07T08:56:37.762Z,23.80
2019-04-07T08:59:11.863Z,23.20
2019-04-07T09:01:41.557Z,21.90
2019-04-07T09:04:15.087Z,21.00
2019-04-07T09:06:43.837Z,21.40
2019-04-07T09:09:14.053Z,22.10
2019-04-07T09:11:44.777Z,23.20
2019-04-07T09:14:16.399Z,22.30
2019-04-07T09:17:06.998Z,22.40
2019-04-07T09:20:10.246Z,22.00
2019-04-07T09:22:56.079Z,22.40
2019-04-07T09:25:35.892Z,23.30
2019-04-07T09:28:24.079Z,23.60
2019-04-07T09:31:13.049Z,23.10
2019-04-07T09:34:03.048Z,22.80
2019-04-07T09:36:53.095Z,22.00
2019-04-07T09:39:54.774Z,22.40
2019-04-07T09:42:28.048Z,22.40
2019-04-07T09:45:07.397Z,21.10
2019-04-07T09:48:10.505Z,21.70
2019-04-07T09:50:55.454Z,21.70
2019-04-07T09:53:50.213Z,22.10
2019-04-07T09:56:37.462Z,22.10
2019-04-07T09:59:25.303Z,22.50
2019-04-07T10:02:06.743Z,22.80
2019-04-07T10:04:42.813Z,23.70
2019-04-07T10:07:42.811Z,23.60
2019-04-07T10:10:41.476Z,23.00
2019-04-07T10:13:42.721Z,22.20
2019-04-07T10:16:27.093Z,23.00
2019-04-07T10:19:16.313Z,22.00
2019-04-07T10:22:03.574Z,22.30
2019-04-07T10:24:58.564Z,21.80
2019-04-07T10:27:59.592Z,22.10
2019-04-07T10:30:43.928Z,22.80
2019-04-07T10:33:40.557Z,24.10
2019-04-07T10:36:28.645Z,24.40
2019-04-07T10:39:16.341Z,23.70
2019-04-07T10:41:57.920Z,22.50
2019-04-07T10:44:46.948Z,22.00
2019-04-07T10:47:32.198Z,22.50
2019-04-07T10:50:11.439Z,21.60
2019-04-07T10:53:00.228Z,21.20
2019-04-07T10:55:45.219Z,21.40
2019-04-07T10:58:34.516Z,21.00
2019-04-07T11:01:30.070Z,21.20
2019-04-07T11:04:17.951Z,21.80
2019-04-07T11:07:19.051Z,23.10
2019-04-07T11:10:01.247Z,22.80
2019-04-07T11:13:03.116Z,22.50
2019-04-07T11:15:44.919Z,22.40
2019-04-07T11:18:25.427Z,23.10
2019-04-07T11:21:14.354Z,22.80
2019-04-07T11:24:03.984Z,22.80
2019-04-07T11:26:51.752Z,22.70
2019-04-07T11:29:39.393Z,22.20
2019-04-07T11:32:28.236Z,21.60
2019-04-07T11:35:15.343Z,21.20
2019-04-07T11:37:55.512Z,21.80
2019-04-07T11:40:45.904Z,22.00
2019-04-07T11:43:17.978Z,22.00
2019-04-07T11:46:00.084Z,21.80
2019-04-07T11:49:00.872Z,21.90
2019-04-07T11:51:36.962Z,21.90
2019-04-07T11:54:18.532Z,21.70
2019-04-07T11:56:57.450Z,21.10
2019-04-07T11:59:50.256Z,21.00
2019-04-07T12:02:35.298Z,20.60
2019-04-07T12:05:31.106Z,21.00
2019-04-07T12:08:36.136Z,22.00
2019-04-07T12:11:26.488Z,22.50
2019-04-07T12:14:31.925Z,22.70
2019-04-07T12:17:17.735Z,22.80
2019-04-07T12:20:10.769Z,22.00
2019-04-07T12:22:52.860Z,21.70
2019-04-07T12:25:43.137Z,21.80
2019-04-07T12:28:31.336Z,21.90
2019-04-07T12:31:07.537Z,21.60
2019-04-07T12:33:50.645Z,21.40
2019-04-07T12:36:31.086Z,20.90
2019-04-07T12:39:24.054Z,20.60
2019-04-07T12:42:18.880Z,21.00
2019-04-07T12:44:55.574Z,21.20
2019-04-07T12:47:50.757Z,21.30
2019-04-07T12:50:39.735Z,21.90
2019-04-07T12:53:26.313Z,21.90
2019-04-07T12:56:15.750Z,21.50
2019-04-07T12:59:00.214Z,21.10
2019-04-07T13:01:47.068Z,20.10
2019-04-07T13:04:39.686Z,19.70
2019-04-07T13:07:19.410Z,19.70
2019-04-07T13:10:02.959Z,20.00
2019-04-07T13:12:43.305Z,20.10
2019-04-07T13:15:32.255Z,21.00
2019-04-07T13:18:10.567Z,21.20
2019-04-07T13:21:10.388Z,20.20
2019-04-07T13:24:28.881Z,19.80
2019-04-07T13:27:14.175Z,19.70
2019-04-07T13:29:56.575Z,19.40
2019-04-07T13:32:41.813Z,19.20
2019-04-07T13:35:37.443Z,19.60
2019-04-07T13:38:35.820Z,20.20
2019-04-07T13:41:38.717Z,20.60
2019-04-07T13:44:36.753Z,21.20
2019-04-07T13:47:29.141Z,21.60
2019-04-07T13:50:20.367Z,21.50
2019-04-07T13:53:20.710Z,20.70
2019-04-07T13:56:03.008Z,20.40
2019-04-07T13:58:41.115Z,20.30
2019-04-07T14:01:25.695Z,20.10
2019-04-07T14:04:17.968Z,20.00
2019-04-07T14:07:00.355Z,19.80
2019-04-07T14:09:41.968Z,19.50
2019-04-07T14:12:19.577Z,19.30
2019-04-07T14:15:07.888Z,19.60
2019-04-07T14:17:51.415Z,19.90
2019-04-07T14:20:44.097Z,20.50
2019-04-07T14:23:32.123Z,20.80
2019-04-07T14:26:11.370Z,20.70
2019-04-07T14:29:01.935Z,20.10
2019-04-07T14:31:39.111Z,20.10
2019-04-07T14:34:31.616Z,19.90
2019-04-07T14:37:17.481Z,19.80
2019-04-07T14:40:01.442Z,19.90
2019-04-07T14:42:57.139Z,20.00
2019-04-07T14:45:44.546Z,20.10
2019-04-07T14:48:33.724Z,20.20
2019-04-07T14:51:21.827Z,20.10
2019-04-07T14:54:23.425Z,20.00
2019-04-07T14:57:25.520Z,19.90
2019-04-07T15:00:29.821Z,19.80
2019-04-07T15:03:00.847Z,19.50
2019-04-07T15:05:34.275Z,19.40
2019-04-07T15:08:24.761Z,19.60
2019-04-07T15:11:01.495Z,19.60
2019-04-07T15:13:32.111Z,19.40
2019-04-07T15:16:02.434Z,19.40
2019-04-07T15:18:32.651Z,19.70
2019-04-07T15:21:03.522Z,19.60
2019-04-07T15:23:33.634Z,19.60
2019-04-07T15:26:03.685Z,19.60
2019-04-07T15:28:34.103Z,19.40
2019-04-07T15:31:04.333Z,19.20
2019-04-07T15:33:35.184Z,19.10
2019-04-07T15:36:07.952Z,19.00
2019-04-07T15:38:40.224Z,18.80
2019-04-07T15:41:15.169Z,19.00
2019-04-07T15:43:41.184Z,19.10
2019-04-07T15:46:13.027Z,19.10
2019-04-07T15:48:48.256Z,19.00
2019-04-07T15:51:19.424Z,18.90
2019-04-07T15:53:51.619Z,18.80
2019-04-07T15:56:22.210Z,18.80
2019-04-07T15:58:52.840Z,18.70
2019-04-07T16:01:23.783Z,18.70
2019-04-07T16:03:54.837Z,18.70
2019-04-07T16:06:25.876Z,18.60
2019-04-07T16:08:59.418Z,18.70
2019-04-07T16:11:30.312Z,18.80
2019-04-07T16:14:00.041Z,18.80
2019-04-07T16:16:30.749Z,18.70
2019-04-07T16:19:01.418Z,18.80
2019-04-07T16:21:31.516Z,18.70
2019-04-07T16:24:04.054Z,18.70
2019-04-07T16:26:36.969Z,18.80
2019-04-07T16:29:08.071Z,18.80
2019-04-07T16:31:39.067Z,18.70
2019-04-07T16:34:10.317Z,18.70
2019-04-07T16:36:41.300Z,18.70
2019-04-07T16:39:11.555Z,18.60
2019-04-07T16:41:45.912Z,18.50
2019-04-07T16:44:15.957Z,18.50
2019-04-07T16:46:46.735Z,18.50
2019-04-07T16:49:19.016Z,18.40
2019-04-07T16:51:49.433Z,18.40
2019-04-07T16:54:19.936Z,18.40
2019-04-07T16:56:54.884Z,18.20
2019-04-07T16:59:22.335Z,18.10
2019-04-07T17:01:52.965Z,18.10
2019-04-07T17:04:23.109Z,18.00
2019-04-07T17:07:00.195Z,18.00
2019-04-07T17:09:28.042Z,18.00
2019-04-07T17:11:57.791Z,18.10
2019-04-07T17:14:31.946Z,18.00
2019-04-07T17:17:00.266Z,18.00
2019-04-07T17:19:32.013Z,18.10
2019-04-07T17:22:03.085Z,18.00
2019-04-07T17:24:33.438Z,18.00
2019-04-07T17:27:04.568Z,17.90
2019-04-07T17:29:34.843Z,17.80
2019-04-07T17:32:06.255Z,17.80
2019-04-07T17:34:36.839Z,17.70
2019-04-07T17:37:07.247Z,17.70
2019-04-07T17:39:55.883Z,17.60
2019-04-07T17:42:28.298Z,17.50
2019-04-07T17:45:11.830Z,17.50
2019-04-07T17:47:57.278Z,17.50
2019-04-07T17:50:45.459Z,17.40
2019-04-07T17:53:23.502Z,17.30
2019-04-07T17:56:10.782Z,17.30
2019-04-07T17:58:49.716Z,17.20
2019-04-07T18:01:55.424Z,17.10
2019-04-07T18:04:34.856Z,17.10
2019-04-07T18:07:23.623Z,17.10
2019-04-07T18:10:02.711Z,17.10
2019-04-07T18:12:40.154Z,17.00
2019-04-07T18:15:26.326Z,16.90
2019-04-07T18:18:18.678Z,16.90
2019-04-07T18:21:06.032Z,16.80
2019-04-07T18:23:59.792Z,16.70
2019-04-07T18:26:40.458Z,16.70
2019-04-07T18:29:17.215Z,16.60
2019-04-07T18:32:07.562Z,16.50
2019-04-07T18:34:57.043Z,16.50
2019-04-07T18:37:44.280Z,16.50
2019-04-07T18:40:35.120Z,16.40
2019-04-07T18:43:23.001Z,16.30
2019-04-07T18:46:16.953Z,16.30
2019-04-07T18:49:15.795Z,16.20
2019-04-07T18:51:58.080Z,16.30
2019-04-07T18:54:46.481Z,16.30
2019-04-07T18:57:37.154Z,16.30
2019-04-07T19:00:42.378Z,16.20
2019-04-07T19:03:51.944Z,16.10
2019-04-07T19:06:47.653Z,15.90
2019-04-07T19:09:35.923Z,15.80
2019-04-07T19:12:24.714Z,15.60
2019-04-07T19:15:29.855Z,15.50
2019-04-07T19:18:24.811Z,15.50
2019-04-07T19:21:13.811Z,15.50
2019-04-07T19:24:03.101Z,15.50
2019-04-07T19:27:11.864Z,15.50
2019-04-07T19:29:52.130Z,15.50
2019-04-07T19:32:29.250Z,15.50
2019-04-07T19:35:25.057Z,15.40
2019-04-07T19:38:20.650Z,15.40
2019-04-07T19:41:07.198Z,15.30
2019-04-07T19:43:55.639Z,15.20
2019-04-07T19:46:38.693Z,15.20
2019-04-07T19:49:20.584Z,15.20
2019-04-07T19:52:09.118Z,15.10
2019-04-07T19:54:51.325Z,14.90
2019-04-07T19:57:30.399Z,14.70
2019-04-07T20:00:14.236Z,14.60
2019-04-07T20:03:09.683Z,14.50
2019-04-07T20:05:51.617Z,14.40
2019-04-07T20:08:42.094Z,14.40
2019-04-07T20:11:29.601Z,14.30
2019-04-07T20:14:10.364Z,14.40
2019-04-07T20:16:55.605Z,14.40
2019-04-07T20:19:37.263Z,14.50
2019-04-07T20:22:24.996Z,14.60
2019-04-07T20:25:15.732Z,14.70
2019-04-07T20:28:06.925Z,14.70
2019-04-07T20:30:59.992Z,14.80
2019-04-07T20:33:46.916Z,14.90
2019-04-07T20:36:44.432Z,14.90
2019-04-07T20:39:21.350Z,14.90
2019-04-07T20:42:00.910Z,14.90
2019-04-07T20:44:39.911Z,14.90
2019-04-07T20:47:21.875Z,14.90
2019-04-07T20:50:20.073Z,14.80
2019-04-07T20:53:14.590Z,14.70
2019-04-07T20:56:11.512Z,14.60
2019-04-07T20:59:03.240Z,14.60
2019-04-07T21:02:04.486Z,14.60
2019-04-07T21:04:51.486Z,14.70
2019-04-07T21:07:35.482Z,14.70
2019-04-07T21:10:23.152Z,14.70
2019-04-07T21:12:58.897Z,14.70
2019-04-07T21:15:50.598Z,14.70
2019-04-07T21:18:33.963Z,14.70
2019-04-07T21:21:22.139Z,14.60
2019-04-07T21:24:06.288Z,14.40
2019-04-07T21:26:42.594Z,14.10
2019-04-07T21:29:22.453Z,14.00
2019-04-07T21:31:59.768Z,14.10
2019-04-07T21:34:56.241Z,14.10
2019-04-07T21:37:40.828Z,14.00
2019-04-07T21:40:17.529Z,14.00
2019-04-07T21:43:04.704Z,13.90
2019-04-07T21:45:50.375Z,13.90
2019-04-07T21:48:33.011Z,14.00
2019-04-07T21:51:28.977Z,14.00
2019-04-07T21:54:07.670Z,14.00
2019-04-07T21:57:06.013Z,14.00
2019-04-07T22:00:01.079Z,13.90
2019-04-07T22:02:49.250Z,13.90
2019-04-07T22:05:26.888Z,13.90
2019-04-07T22:08:09.566Z,13.90
2019-04-07T22:10:34.013Z,13.90
2019-04-07T22:13:06.649Z,13.90
2019-04-07T22:15:47.342Z,13.90
2019-04-07T22:18:08.982Z,13.90
2019-04-07T22:20:39.859Z,13.90
2019-04-07T22:23:10.091Z,14.00
2019-04-07T22:25:50.587Z,14.10
2019-04-07T22:28:20.795Z,14.00
2019-04-07T22:30:52.147Z,14.00
2019-04-07T22:33:25.191Z,14.00
2019-04-07T22:35:53.742Z,13.90
2019-04-07T22:38:23.907Z,13.90
2019-04-07T22:40:54.258Z,13.90
2019-04-07T22:43:24.987Z,13.80
2019-04-07T22:46:06.623Z,13.80
2019-04-07T22:48:28.070Z,13.90
2019-04-07T22:50:59.042Z,13.80
2019-04-07T22:53:31.376Z,13.80
2019-04-07T22:56:04.766Z,13.70
2019-04-07T22:58:33.288Z,13.60
2019-04-07T23:01:03.299Z,13.60
2019-04-07T23:03:33.452Z,13.60
2019-04-07T23:06:03.885Z,13.60
2019-04-07T23:08:34.949Z,13.60
2019-04-07T23:11:05.225Z,13.60
2019-04-07T23:13:35.502Z,13.60
2019-04-07T23:16:10.738Z,13.60
2019-04-07T23:18:38.032Z,13.50
2019-04-07T23:21:08.191Z,13.50
2019-04-07T23:23:39.883Z,13.50
2019-04-07T23:26:09.809Z,13.50
2019-04-07T23:28:40.618Z,13.40
2019-04-07T23:31:10.577Z,13.40
2019-04-07T23:33:40.507Z,13.40
2019-04-07T23:36:11.384Z,13.40
2019-04-07T23:38:41.682Z,13.40
2019-04-07T23:41:11.751Z,13.30
2019-04-07T23:43:42.060Z,13.30
2019-04-07T23:46:20.764Z,13.30
2019-04-07T23:48:44.127Z,13.30
2019-04-07T23:51:14.318Z,13.30
2019-04-07T23:54:20.330Z,13.30
2019-04-07T23:56:50.300Z,13.30
2019-04-07T23:59:20.725Z,13.20
